sensor_id;sensor_type;location;lat;lon;timestamp;P1;durP1;ratioP1;P2;durP2;ratioP2
7821;SDS011;3956;50.558;9.678;2023-04-16T00:02:21;26.63;;;18.70;;
7821;SDS011;3956;50.558;9.678;2023-04-16T00:04:52;31.17;;;21.17;;
7821;SDS011;3956;50.558;9.678;2023-04-16T00:07:20;32.47;;;21.40;;
7821;SDS011;3956;50.558;9.678;2023-04-16T00:09:51;29.30;;;20.43;;
7821;SDS011;3956;50.558;9.678;2023-04-16T00:12:19;30.87;;;21.57;;
7821;SDS011;3956;50.558;9.678;2023-04-16T00:14:50;33.67;;;22.40;;
7821;SDS011;3956;50.558;9.678;2023-04-16T00:17:18;34.97;;;23.50;;
7821;SDS011;3956;50.558;9.678;2023-04-16T00:19:50;31.63;;;21.47;;
7821;SDS011;3956;50.558;9.678;2023-04-16T00:22:19;34.73;;;24.03;;
7821;SDS011;3956;50.558;9.678;2023-04-16T00:24:47;34.17;;;23.53;;
7821;SDS011;3956;50.558;9.678;2023-04-16T00:27:15;33.43;;;24.33;;
7821;SDS011;3956;50.558;9.678;2023-04-16T00:29:46;36.17;;;23.90;;
7821;SDS011;3956;50.558;9.678;2023-04-16T00:32:15;33.07;;;23.37;;
7821;SDS011;3956;50.558;9.678;2023-04-16T00:34:45;35.07;;;22.77;;
7821;SDS011;3956;50.558;9.678;2023-04-16T00:37:14;35.83;;;23.00;;
7821;SDS011;3956;50.558;9.678;2023-04-16T00:39:44;36.13;;;23.07;;
7821;SDS011;3956;50.558;9.678;2023-04-16T00:42:15;33.50;;;22.67;;
7821;SDS011;3956;50.558;9.678;2023-04-16T00:44:46;33.00;;;21.37;;
7821;SDS011;3956;50.558;9.678;2023-04-16T00:47:16;32.50;;;22.33;;
7821;SDS011;3956;50.558;9.678;2023-04-16T00:49:48;29.87;;;21.00;;
7821;SDS011;3956;50.558;9.678;2023-04-16T00:52:17;28.63;;;20.60;;
7821;SDS011;3956;50.558;9.678;2023-04-16T00:54:47;29.77;;;20.53;;
7821;SDS011;3956;50.558;9.678;2023-04-16T00:57:18;29.47;;;20.50;;
7821;SDS011;3956;50.558;9.678;2023-04-16T00:59:50;24.83;;;18.27;;
7821;SDS011;3956;50.558;9.678;2023-04-16T01:02:19;27.77;;;18.80;;
7821;SDS011;3956;50.558;9.678;2023-04-16T01:04:48;26.43;;;18.73;;
7821;SDS011;3956;50.558;9.678;2023-04-16T01:07:19;27.27;;;18.83;;
7821;SDS011;3956;50.558;9.678;2023-04-16T01:09:48;26.87;;;18.43;;
7821;SDS011;3956;50.558;9.678;2023-04-16T01:12:18;24.97;;;17.73;;
7821;SDS011;3956;50.558;9.678;2023-04-16T01:14:46;22.87;;;17.00;;
7821;SDS011;3956;50.558;9.678;2023-04-16T01:17:15;27.60;;;18.47;;
7821;SDS011;3956;50.558;9.678;2023-04-16T01:19:49;25.23;;;17.60;;
7821;SDS011;3956;50.558;9.678;2023-04-16T01:22:20;24.57;;;17.73;;
7821;SDS011;3956;50.558;9.678;2023-04-16T01:24:49;27.60;;;18.93;;
7821;SDS011;3956;50.558;9.678;2023-04-16T01:27:17;25.43;;;17.60;;
7821;SDS011;3956;50.558;9.678;2023-04-16T01:29:47;29.23;;;19.60;;
7821;SDS011;3956;50.558;9.678;2023-04-16T01:32:16;26.80;;;18.70;;
7821;SDS011;3956;50.558;9.678;2023-04-16T01:34:46;30.57;;;20.17;;
7821;SDS011;3956;50.558;9.678;2023-04-16T01:37:15;28.43;;;20.37;;
7821;SDS011;3956;50.558;9.678;2023-04-16T01:39:46;31.03;;;21.37;;
7821;SDS011;3956;50.558;9.678;2023-04-16T01:42:15;31.33;;;20.97;;
7821;SDS011;3956;50.558;9.678;2023-04-16T01:44:49;30.53;;;21.47;;
7821;SDS011;3956;50.558;9.678;2023-04-16T01:47:21;31.20;;;21.90;;
7821;SDS011;3956;50.558;9.678;2023-04-16T01:50:03;32.70;;;22.57;;
7821;SDS011;3956;50.558;9.678;2023-04-16T01:52:32;30.97;;;21.93;;
7821;SDS011;3956;50.558;9.678;2023-04-16T01:55:01;35.17;;;22.77;;
7821;SDS011;3956;50.558;9.678;2023-04-16T01:57:30;32.63;;;22.33;;
7821;SDS011;3956;50.558;9.678;2023-04-16T01:59:59;31.93;;;23.53;;
7821;SDS011;3956;50.558;9.678;2023-04-16T02:02:30;32.87;;;23.37;;
7821;SDS011;3956;50.558;9.678;2023-04-16T02:05:04;35.57;;;23.67;;
7821;SDS011;3956;50.558;9.678;2023-04-16T02:07:36;35.13;;;24.07;;
7821;SDS011;3956;50.558;9.678;2023-04-16T02:10:09;33.30;;;22.90;;
7821;SDS011;3956;50.558;9.678;2023-04-16T02:12:42;32.83;;;22.73;;
7821;SDS011;3956;50.558;9.678;2023-04-16T02:15:14;33.57;;;22.90;;
7821;SDS011;3956;50.558;9.678;2023-04-16T02:17:48;33.70;;;23.97;;
7821;SDS011;3956;50.558;9.678;2023-04-16T02:20:22;33.30;;;23.73;;
7821;SDS011;3956;50.558;9.678;2023-04-16T02:22:54;39.43;;;24.93;;
7821;SDS011;3956;50.558;9.678;2023-04-16T02:25:27;37.37;;;25.57;;
7821;SDS011;3956;50.558;9.678;2023-04-16T02:27:58;33.63;;;25.03;;
7821;SDS011;3956;50.558;9.678;2023-04-16T02:30:29;39.07;;;25.83;;
7821;SDS011;3956;50.558;9.678;2023-04-16T02:33:01;38.27;;;25.13;;
7821;SDS011;3956;50.558;9.678;2023-04-16T02:35:35;36.30;;;24.80;;
7821;SDS011;3956;50.558;9.678;2023-04-16T02:38:06;37.83;;;25.10;;
7821;SDS011;3956;50.558;9.678;2023-04-16T02:40:38;38.73;;;25.40;;
7821;SDS011;3956;50.558;9.678;2023-04-16T02:43:08;36.73;;;26.30;;
7821;SDS011;3956;50.558;9.678;2023-04-16T02:45:40;35.53;;;24.77;;
7821;SDS011;3956;50.558;9.678;2023-04-16T02:48:10;38.77;;;25.67;;
7821;SDS011;3956;50.558;9.678;2023-04-16T02:50:39;36.53;;;24.27;;
7821;SDS011;3956;50.558;9.678;2023-04-16T02:53:08;37.83;;;24.87;;
7821;SDS011;3956;50.558;9.678;2023-04-16T02:55:40;38.47;;;25.40;;
7821;SDS011;3956;50.558;9.678;2023-04-16T02:58:14;36.63;;;25.20;;
7821;SDS011;3956;50.558;9.678;2023-04-16T03:00:50;38.00;;;25.90;;
7821;SDS011;3956;50.558;9.678;2023-04-16T03:03:29;40.03;;;26.17;;
7821;SDS011;3956;50.558;9.678;2023-04-16T03:06:12;36.37;;;26.13;;
7821;SDS011;3956;50.558;9.678;2023-04-16T03:08:40;34.63;;;25.30;;
7821;SDS011;3956;50.558;9.678;2023-04-16T03:11:10;37.53;;;25.57;;
7821;SDS011;3956;50.558;9.678;2023-04-16T03:13:38;39.17;;;26.87;;
7821;SDS011;3956;50.558;9.678;2023-04-16T03:16:08;40.67;;;27.40;;
7821;SDS011;3956;50.558;9.678;2023-04-16T03:18:37;41.00;;;26.87;;
7821;SDS011;3956;50.558;9.678;2023-04-16T03:21:08;39.63;;;28.20;;
7821;SDS011;3956;50.558;9.678;2023-04-16T03:23:37;37.67;;;25.77;;
7821;SDS011;3956;50.558;9.678;2023-04-16T03:26:05;37.87;;;26.93;;
7821;SDS011;3956;50.558;9.678;2023-04-16T03:28:35;38.17;;;26.37;;
7821;SDS011;3956;50.558;9.678;2023-04-16T03:31:03;38.20;;;25.83;;
7821;SDS011;3956;50.558;9.678;2023-04-16T03:33:31;41.77;;;27.33;;
7821;SDS011;3956;50.558;9.678;2023-04-16T03:35:59;36.53;;;26.33;;
7821;SDS011;3956;50.558;9.678;2023-04-16T03:38:29;37.23;;;26.80;;
7821;SDS011;3956;50.558;9.678;2023-04-16T03:40:59;40.53;;;27.27;;
7821;SDS011;3956;50.558;9.678;2023-04-16T03:43:30;39.83;;;25.37;;
7821;SDS011;3956;50.558;9.678;2023-04-16T03:46:00;39.63;;;26.60;;
7821;SDS011;3956;50.558;9.678;2023-04-16T03:48:30;38.17;;;26.23;;
7821;SDS011;3956;50.558;9.678;2023-04-16T03:51:01;37.90;;;26.40;;
7821;SDS011;3956;50.558;9.678;2023-04-16T03:53:32;40.60;;;26.53;;
7821;SDS011;3956;50.558;9.678;2023-04-16T03:56:00;36.90;;;26.47;;
7821;SDS011;3956;50.558;9.678;2023-04-16T03:58:29;36.97;;;26.00;;
7821;SDS011;3956;50.558;9.678;2023-04-16T04:00:57;36.93;;;24.63;;
7821;SDS011;3956;50.558;9.678;2023-04-16T04:03:31;38.07;;;25.87;;
7821;SDS011;3956;50.558;9.678;2023-04-16T04:06:00;34.97;;;24.70;;
7821;SDS011;3956;50.558;9.678;2023-04-16T04:08:34;36.27;;;24.80;;
7821;SDS011;3956;50.558;9.678;2023-04-16T04:11:05;35.30;;;24.93;;
7821;SDS011;3956;50.558;9.678;2023-04-16T04:13:33;34.57;;;24.80;;
7821;SDS011;3956;50.558;9.678;2023-04-16T04:16:05;37.47;;;25.03;;
7821;SDS011;3956;50.558;9.678;2023-04-16T04:18:43;35.60;;;25.40;;
7821;SDS011;3956;50.558;9.678;2023-04-16T04:21:13;37.90;;;25.73;;
7821;SDS011;3956;50.558;9.678;2023-04-16T04:23:41;37.93;;;26.07;;
7821;SDS011;3956;50.558;9.678;2023-04-16T04:26:09;36.90;;;24.13;;
7821;SDS011;3956;50.558;9.678;2023-04-16T04:28:38;41.13;;;25.70;;
7821;SDS011;3956;50.558;9.678;2023-04-16T04:31:07;37.77;;;26.27;;
7821;SDS011;3956;50.558;9.678;2023-04-16T04:33:36;41.27;;;27.00;;
7821;SDS011;3956;50.558;9.678;2023-04-16T04:36:06;36.40;;;26.07;;
7821;SDS011;3956;50.558;9.678;2023-04-16T04:38:36;37.90;;;26.10;;
7821;SDS011;3956;50.558;9.678;2023-04-16T04:41:04;39.43;;;27.17;;
7821;SDS011;3956;50.558;9.678;2023-04-16T04:43:34;38.70;;;26.53;;
7821;SDS011;3956;50.558;9.678;2023-04-16T04:46:08;37.57;;;25.07;;
7821;SDS011;3956;50.558;9.678;2023-04-16T04:48:37;38.50;;;25.10;;
7821;SDS011;3956;50.558;9.678;2023-04-16T04:51:08;37.20;;;25.30;;
7821;SDS011;3956;50.558;9.678;2023-04-16T04:53:39;41.57;;;25.93;;
7821;SDS011;3956;50.558;9.678;2023-04-16T04:56:07;35.57;;;24.93;;
7821;SDS011;3956;50.558;9.678;2023-04-16T04:58:39;34.93;;;23.67;;
7821;SDS011;3956;50.558;9.678;2023-04-16T05:01:07;40.13;;;23.70;;
7821;SDS011;3956;50.558;9.678;2023-04-16T05:03:38;31.63;;;22.57;;
7821;SDS011;3956;50.558;9.678;2023-04-16T05:06:08;33.90;;;23.77;;
7821;SDS011;3956;50.558;9.678;2023-04-16T05:08:37;32.10;;;22.67;;
7821;SDS011;3956;50.558;9.678;2023-04-16T05:11:06;30.37;;;21.87;;
7821;SDS011;3956;50.558;9.678;2023-04-16T05:13:34;31.90;;;22.97;;
7821;SDS011;3956;50.558;9.678;2023-04-16T05:16:04;33.97;;;23.20;;
7821;SDS011;3956;50.558;9.678;2023-04-16T05:18:33;30.30;;;21.50;;
7821;SDS011;3956;50.558;9.678;2023-04-16T05:21:04;32.30;;;22.10;;
7821;SDS011;3956;50.558;9.678;2023-04-16T05:23:33;29.13;;;19.90;;
7821;SDS011;3956;50.558;9.678;2023-04-16T05:26:01;30.73;;;20.90;;
7821;SDS011;3956;50.558;9.678;2023-04-16T05:28:30;32.37;;;20.80;;
7821;SDS011;3956;50.558;9.678;2023-04-16T05:31:00;31.83;;;20.13;;
7821;SDS011;3956;50.558;9.678;2023-04-16T05:33:28;28.90;;;19.83;;
7821;SDS011;3956;50.558;9.678;2023-04-16T05:35:56;27.07;;;19.37;;
7821;SDS011;3956;50.558;9.678;2023-04-16T05:38:26;29.10;;;20.03;;
7821;SDS011;3956;50.558;9.678;2023-04-16T05:40:56;24.90;;;18.37;;
7821;SDS011;3956;50.558;9.678;2023-04-16T05:43:26;25.60;;;18.03;;
7821;SDS011;3956;50.558;9.678;2023-04-16T05:45:54;28.00;;;18.73;;
7821;SDS011;3956;50.558;9.678;2023-04-16T05:48:25;24.00;;;17.33;;
7821;SDS011;3956;50.558;9.678;2023-04-16T05:50:53;23.07;;;17.57;;
7821;SDS011;3956;50.558;9.678;2023-04-16T05:53:21;23.10;;;15.87;;
7821;SDS011;3956;50.558;9.678;2023-04-16T05:55:49;24.23;;;16.47;;
7821;SDS011;3956;50.558;9.678;2023-04-16T05:58:20;22.73;;;15.83;;
7821;SDS011;3956;50.558;9.678;2023-04-16T06:00:50;21.40;;;15.47;;
7821;SDS011;3956;50.558;9.678;2023-04-16T06:03:20;20.73;;;15.00;;
7821;SDS011;3956;50.558;9.678;2023-04-16T06:05:49;21.27;;;14.93;;
7821;SDS011;3956;50.558;9.678;2023-04-16T06:08:19;20.00;;;14.10;;
7821;SDS011;3956;50.558;9.678;2023-04-16T06:10:47;16.13;;;13.10;;
7821;SDS011;3956;50.558;9.678;2023-04-16T06:13:17;19.50;;;14.53;;
7821;SDS011;3956;50.558;9.678;2023-04-16T06:15:48;18.23;;;13.67;;
7821;SDS011;3956;50.558;9.678;2023-04-16T06:18:17;17.30;;;13.17;;
7821;SDS011;3956;50.558;9.678;2023-04-16T06:20:50;22.23;;;14.40;;
7821;SDS011;3956;50.558;9.678;2023-04-16T06:23:18;17.67;;;12.73;;
7821;SDS011;3956;50.558;9.678;2023-04-16T06:25:55;20.57;;;13.30;;
7821;SDS011;3956;50.558;9.678;2023-04-16T06:28:25;17.37;;;13.23;;
7821;SDS011;3956;50.558;9.678;2023-04-16T06:30:55;16.13;;;12.83;;
7821;SDS011;3956;50.558;9.678;2023-04-16T06:33:42;17.67;;;12.73;;
7821;SDS011;3956;50.558;9.678;2023-04-16T06:36:10;14.83;;;12.13;;
7821;SDS011;3956;50.558;9.678;2023-04-16T06:38:40;17.57;;;13.47;;
7821;SDS011;3956;50.558;9.678;2023-04-16T06:41:12;17.73;;;12.70;;
7821;SDS011;3956;50.558;9.678;2023-04-16T06:43:45;15.93;;;13.07;;
7821;SDS011;3956;50.558;9.678;2023-04-16T06:47:02;16.57;;;11.90;;
7821;SDS011;3956;50.558;9.678;2023-04-16T06:49:32;16.00;;;12.10;;
7821;SDS011;3956;50.558;9.678;2023-04-16T06:52:08;17.07;;;12.83;;
7821;SDS011;3956;50.558;9.678;2023-04-16T06:54:40;13.80;;;11.77;;
7821;SDS011;3956;50.558;9.678;2023-04-16T06:57:09;17.63;;;11.83;;
7821;SDS011;3956;50.558;9.678;2023-04-16T06:59:39;13.23;;;11.17;;
7821;SDS011;3956;50.558;9.678;2023-04-16T07:02:11;14.87;;;11.87;;
7821;SDS011;3956;50.558;9.678;2023-04-16T07:04:42;13.87;;;11.50;;
7821;SDS011;3956;50.558;9.678;2023-04-16T07:07:14;15.17;;;11.60;;
7821;SDS011;3956;50.558;9.678;2023-04-16T07:09:44;16.07;;;11.47;;
7821;SDS011;3956;50.558;9.678;2023-04-16T07:12:18;13.50;;;11.07;;
7821;SDS011;3956;50.558;9.678;2023-04-16T07:14:49;13.43;;;11.27;;
7821;SDS011;3956;50.558;9.678;2023-04-16T07:17:22;16.07;;;11.93;;
7821;SDS011;3956;50.558;9.678;2023-04-16T07:19:50;13.90;;;12.40;;
7821;SDS011;3956;50.558;9.678;2023-04-16T07:22:21;16.90;;;11.67;;
7821;SDS011;3956;50.558;9.678;2023-04-16T07:24:50;16.23;;;11.83;;
7821;SDS011;3956;50.558;9.678;2023-04-16T07:27:20;18.17;;;12.37;;
7821;SDS011;3956;50.558;9.678;2023-04-16T07:29:48;15.03;;;12.50;;
7821;SDS011;3956;50.558;9.678;2023-04-16T07:32:21;15.00;;;12.80;;
7821;SDS011;3956;50.558;9.678;2023-04-16T07:34:51;15.43;;;12.20;;
7821;SDS011;3956;50.558;9.678;2023-04-16T07:37:26;17.47;;;12.83;;
7821;SDS011;3956;50.558;9.678;2023-04-16T07:39:54;15.67;;;13.13;;
7821;SDS011;3956;50.558;9.678;2023-04-16T07:42:24;18.40;;;14.40;;
7821;SDS011;3956;50.558;9.678;2023-04-16T07:44:53;17.60;;;14.13;;
7821;SDS011;3956;50.558;9.678;2023-04-16T07:47:30;18.80;;;15.10;;
7821;SDS011;3956;50.558;9.678;2023-04-16T07:50:00;17.83;;;13.97;;
7821;SDS011;3956;50.558;9.678;2023-04-16T07:52:32;18.83;;;14.93;;
7821;SDS011;3956;50.558;9.678;2023-04-16T07:55:02;17.00;;;14.43;;
7821;SDS011;3956;50.558;9.678;2023-04-16T07:57:32;16.93;;;13.70;;
7821;SDS011;3956;50.558;9.678;2023-04-16T08:00:03;20.10;;;14.83;;
7821;SDS011;3956;50.558;9.678;2023-04-16T08:02:36;17.77;;;14.60;;
7821;SDS011;3956;50.558;9.678;2023-04-16T08:05:06;18.73;;;13.93;;
7821;SDS011;3956;50.558;9.678;2023-04-16T08:07:45;19.20;;;14.23;;
7821;SDS011;3956;50.558;9.678;2023-04-16T08:10:14;19.57;;;14.53;;
7821;SDS011;3956;50.558;9.678;2023-04-16T08:12:44;18.55;;;16.55;;
7821;SDS011;3956;50.558;9.678;2023-04-16T08:15:12;17.37;;;15.00;;
7821;SDS011;3956;50.558;9.678;2023-04-16T08:17:42;18.67;;;14.63;;
7821;SDS011;3956;50.558;9.678;2023-04-16T08:20:10;17.87;;;14.77;;
7821;SDS011;3956;50.558;9.678;2023-04-16T08:22:43;18.50;;;14.97;;
7821;SDS011;3956;50.558;9.678;2023-04-16T08:25:14;23.20;;;16.73;;
7821;SDS011;3956;50.558;9.678;2023-04-16T08:27:42;22.73;;;17.33;;
7821;SDS011;3956;50.558;9.678;2023-04-16T08:30:11;22.77;;;18.17;;
7821;SDS011;3956;50.558;9.678;2023-04-16T08:32:46;20.57;;;17.17;;
7821;SDS011;3956;50.558;9.678;2023-04-16T08:35:15;20.87;;;17.33;;
7821;SDS011;3956;50.558;9.678;2023-04-16T08:37:45;19.47;;;16.10;;
7821;SDS011;3956;50.558;9.678;2023-04-16T08:40:13;19.87;;;15.87;;
7821;SDS011;3956;50.558;9.678;2023-04-16T08:42:44;20.27;;;16.17;;
7821;SDS011;3956;50.558;9.678;2023-04-16T08:45:15;21.47;;;15.33;;
7821;SDS011;3956;50.558;9.678;2023-04-16T08:47:48;19.17;;;15.97;;
7821;SDS011;3956;50.558;9.678;2023-04-16T08:50:21;19.23;;;15.17;;
7821;SDS011;3956;50.558;9.678;2023-04-16T08:53:03;18.87;;;15.60;;
7821;SDS011;3956;50.558;9.678;2023-04-16T08:55:47;17.50;;;14.57;;
7821;SDS011;3956;50.558;9.678;2023-04-16T08:58:18;18.17;;;14.40;;
7821;SDS011;3956;50.558;9.678;2023-04-16T09:00:54;17.17;;;14.07;;
7821;SDS011;3956;50.558;9.678;2023-04-16T09:03:50;17.10;;;14.20;;
7821;SDS011;3956;50.558;9.678;2023-04-16T09:07:05;16.57;;;13.77;;
7821;SDS011;3956;50.558;9.678;2023-04-16T09:10:10;17.07;;;13.93;;
7821;SDS011;3956;50.558;9.678;2023-04-16T09:13:13;17.47;;;14.30;;
7821;SDS011;3956;50.558;9.678;2023-04-16T09:15:46;18.23;;;13.93;;
7821;SDS011;3956;50.558;9.678;2023-04-16T09:18:24;19.10;;;14.67;;
7821;SDS011;3956;50.558;9.678;2023-04-16T09:20:59;17.77;;;14.50;;
7821;SDS011;3956;50.558;9.678;2023-04-16T09:23:34;18.00;;;14.50;;
7821;SDS011;3956;50.558;9.678;2023-04-16T09:26:06;18.03;;;14.00;;
7821;SDS011;3956;50.558;9.678;2023-04-16T09:28:38;21.37;;;15.67;;
7821;SDS011;3956;50.558;9.678;2023-04-16T09:31:07;17.33;;;14.50;;
7821;SDS011;3956;50.558;9.678;2023-04-16T09:33:39;16.73;;;13.40;;
7821;SDS011;3956;50.558;9.678;2023-04-16T09:36:09;20.57;;;14.67;;
7821;SDS011;3956;50.558;9.678;2023-04-16T09:38:44;17.90;;;14.90;;
7821;SDS011;3956;50.558;9.678;2023-04-16T09:41:15;18.07;;;14.07;;
7821;SDS011;3956;50.558;9.678;2023-04-16T09:43:48;17.30;;;14.20;;
7821;SDS011;3956;50.558;9.678;2023-04-16T09:46:24;16.33;;;13.70;;
7821;SDS011;3956;50.558;9.678;2023-04-16T09:49:06;19.07;;;14.77;;
7821;SDS011;3956;50.558;9.678;2023-04-16T09:51:37;16.70;;;13.90;;
7821;SDS011;3956;50.558;9.678;2023-04-16T09:54:07;19.03;;;14.90;;
7821;SDS011;3956;50.558;9.678;2023-04-16T09:56:38;17.37;;;13.57;;
7821;SDS011;3956;50.558;9.678;2023-04-16T09:59:16;18.20;;;14.87;;
7821;SDS011;3956;50.558;9.678;2023-04-16T10:02:32;18.60;;;14.07;;
7821;SDS011;3956;50.558;9.678;2023-04-16T10:05:25;20.77;;;14.70;;
7821;SDS011;3956;50.558;9.678;2023-04-16T10:07:57;18.97;;;14.90;;
7821;SDS011;3956;50.558;9.678;2023-04-16T10:10:26;19.27;;;14.40;;
7821;SDS011;3956;50.558;9.678;2023-04-16T10:12:56;17.80;;;15.03;;
7821;SDS011;3956;50.558;9.678;2023-04-16T10:15:24;19.00;;;15.23;;
7821;SDS011;3956;50.558;9.678;2023-04-16T10:17:53;19.30;;;14.80;;
7821;SDS011;3956;50.558;9.678;2023-04-16T10:20:28;20.87;;;15.83;;
7821;SDS011;3956;50.558;9.678;2023-04-16T10:23:03;18.33;;;14.50;;
7821;SDS011;3956;50.558;9.678;2023-04-16T10:25:40;17.70;;;13.07;;
7821;SDS011;3956;50.558;9.678;2023-04-16T10:28:16;15.93;;;12.67;;
7821;SDS011;3956;50.558;9.678;2023-04-16T10:31:01;15.97;;;12.60;;
7821;SDS011;3956;50.558;9.678;2023-04-16T10:33:38;16.00;;;12.40;;
7821;SDS011;3956;50.558;9.678;2023-04-16T10:36:13;16.20;;;12.67;;
7821;SDS011;3956;50.558;9.678;2023-04-16T10:42:20;15.13;;;11.67;;
7821;SDS011;3956;50.558;9.678;2023-04-16T10:44:52;15.63;;;12.10;;
7821;SDS011;3956;50.558;9.678;2023-04-16T10:47:25;14.93;;;11.87;;
7821;SDS011;3956;50.558;9.678;2023-04-16T10:49:55;13.23;;;11.07;;
7821;SDS011;3956;50.558;9.678;2023-04-16T10:52:24;15.03;;;11.83;;
7821;SDS011;3956;50.558;9.678;2023-04-16T10:54:56;13.93;;;11.07;;
7821;SDS011;3956;50.558;9.678;2023-04-16T10:57:28;14.10;;;11.47;;
7821;SDS011;3956;50.558;9.678;2023-04-16T10:59:56;15.63;;;11.60;;
7821;SDS011;3956;50.558;9.678;2023-04-16T11:02:27;14.63;;;11.30;;
7821;SDS011;3956;50.558;9.678;2023-04-16T11:04:56;12.40;;;11.03;;
7821;SDS011;3956;50.558;9.678;2023-04-16T11:07:32;14.23;;;10.97;;
7821;SDS011;3956;50.558;9.678;2023-04-16T11:10:10;14.40;;;11.20;;
7821;SDS011;3956;50.558;9.678;2023-04-16T11:12:44;15.87;;;10.80;;
7821;SDS011;3956;50.558;9.678;2023-04-16T11:15:14;12.23;;;10.23;;
7821;SDS011;3956;50.558;9.678;2023-04-16T11:17:44;13.60;;;10.23;;
7821;SDS011;3956;50.558;9.678;2023-04-16T11:20:14;13.47;;;10.67;;
7821;SDS011;3956;50.558;9.678;2023-04-16T11:22:45;13.10;;;10.10;;
7821;SDS011;3956;50.558;9.678;2023-04-16T11:25:18;11.97;;;9.57;;
7821;SDS011;3956;50.558;9.678;2023-04-16T11:27:48;10.77;;;9.03;;
7821;SDS011;3956;50.558;9.678;2023-04-16T11:30:27;11.53;;;8.97;;
7821;SDS011;3956;50.558;9.678;2023-04-16T11:32:55;10.60;;;8.63;;
7821;SDS011;3956;50.558;9.678;2023-04-16T11:35:26;13.00;;;8.97;;
7821;SDS011;3956;50.558;9.678;2023-04-16T11:37:57;10.53;;;8.80;;
7821;SDS011;3956;50.558;9.678;2023-04-16T11:40:28;10.07;;;8.70;;
7821;SDS011;3956;50.558;9.678;2023-04-16T11:43:01;10.47;;;8.60;;
7821;SDS011;3956;50.558;9.678;2023-04-16T11:45:30;10.53;;;8.33;;
7821;SDS011;3956;50.558;9.678;2023-04-16T11:48:02;9.63;;;7.83;;
7821;SDS011;3956;50.558;9.678;2023-04-16T11:50:31;10.57;;;7.60;;
7821;SDS011;3956;50.558;9.678;2023-04-16T11:53:03;9.33;;;7.53;;
7821;SDS011;3956;50.558;9.678;2023-04-16T11:55:59;9.73;;;7.90;;
7821;SDS011;3956;50.558;9.678;2023-04-16T11:58:30;10.47;;;8.07;;
7821;SDS011;3956;50.558;9.678;2023-04-16T12:00:59;8.47;;;7.30;;
7821;SDS011;3956;50.558;9.678;2023-04-16T12:03:36;9.23;;;7.10;;
7821;SDS011;3956;50.558;9.678;2023-04-16T12:06:10;9.60;;;7.77;;
7821;SDS011;3956;50.558;9.678;2023-04-16T12:08:38;8.20;;;7.07;;
7821;SDS011;3956;50.558;9.678;2023-04-16T12:11:06;9.37;;;7.43;;
7821;SDS011;3956;50.558;9.678;2023-04-16T12:13:49;7.57;;;6.63;;
7821;SDS011;3956;50.558;9.678;2023-04-16T12:16:34;8.40;;;7.03;;
7821;SDS011;3956;50.558;9.678;2023-04-16T12:19:02;8.77;;;7.27;;
7821;SDS011;3956;50.558;9.678;2023-04-16T12:21:35;8.80;;;7.00;;
7821;SDS011;3956;50.558;9.678;2023-04-16T12:24:13;10.00;;;6.80;;
7821;SDS011;3956;50.558;9.678;2023-04-16T12:27:23;9.20;;;7.20;;
7821;SDS011;3956;50.558;9.678;2023-04-16T12:30:08;8.47;;;6.10;;
7821;SDS011;3956;50.558;9.678;2023-04-16T12:32:36;8.00;;;6.70;;
7821;SDS011;3956;50.558;9.678;2023-04-16T12:35:05;7.40;;;6.00;;
7821;SDS011;3956;50.558;9.678;2023-04-16T12:37:34;8.57;;;6.60;;
7821;SDS011;3956;50.558;9.678;2023-04-16T12:40:02;7.27;;;5.47;;
7821;SDS011;3956;50.558;9.678;2023-04-16T12:42:32;9.57;;;7.67;;
7821;SDS011;3956;50.558;9.678;2023-04-16T12:45:06;6.60;;;5.57;;
7821;SDS011;3956;50.558;9.678;2023-04-16T12:47:36;6.47;;;5.73;;
7821;SDS011;3956;50.558;9.678;2023-04-16T12:50:05;6.63;;;5.60;;
7821;SDS011;3956;50.558;9.678;2023-04-16T12:52:39;7.50;;;6.10;;
7821;SDS011;3956;50.558;9.678;2023-04-16T12:55:07;7.07;;;5.67;;
7821;SDS011;3956;50.558;9.678;2023-04-16T12:57:40;7.60;;;6.50;;
7821;SDS011;3956;50.558;9.678;2023-04-16T13:00:19;7.03;;;5.90;;
7821;SDS011;3956;50.558;9.678;2023-04-16T13:03:07;7.13;;;6.03;;
7821;SDS011;3956;50.558;9.678;2023-04-16T13:05:48;7.83;;;6.47;;
7821;SDS011;3956;50.558;9.678;2023-04-16T13:08:18;7.20;;;6.00;;
7821;SDS011;3956;50.558;9.678;2023-04-16T13:10:47;8.07;;;6.60;;
7821;SDS011;3956;50.558;9.678;2023-04-16T13:13:18;8.13;;;6.47;;
7821;SDS011;3956;50.558;9.678;2023-04-16T13:15:53;8.53;;;6.43;;
7821;SDS011;3956;50.558;9.678;2023-04-16T13:18:24;8.80;;;6.63;;
7821;SDS011;3956;50.558;9.678;2023-04-16T13:20:53;8.30;;;7.17;;
7821;SDS011;3956;50.558;9.678;2023-04-16T13:23:23;10.20;;;7.40;;
7821;SDS011;3956;50.558;9.678;2023-04-16T13:25:52;12.40;;;7.80;;
7821;SDS011;3956;50.558;9.678;2023-04-16T13:28:23;10.87;;;8.00;;
7821;SDS011;3956;50.558;9.678;2023-04-16T13:31:16;9.67;;;7.40;;
7821;SDS011;3956;50.558;9.678;2023-04-16T13:33:48;9.70;;;7.80;;
7821;SDS011;3956;50.558;9.678;2023-04-16T13:36:28;10.27;;;7.77;;
7821;SDS011;3956;50.558;9.678;2023-04-16T13:39:03;10.30;;;8.20;;
7821;SDS011;3956;50.558;9.678;2023-04-16T13:41:36;11.90;;;8.47;;
7821;SDS011;3956;50.558;9.678;2023-04-16T13:44:08;11.77;;;8.73;;
7821;SDS011;3956;50.558;9.678;2023-04-16T13:46:41;11.60;;;8.80;;
7821;SDS011;3956;50.558;9.678;2023-04-16T13:49:15;12.30;;;9.60;;
7821;SDS011;3956;50.558;9.678;2023-04-16T13:51:44;11.80;;;8.73;;
7821;SDS011;3956;50.558;9.678;2023-04-16T13:54:12;12.67;;;9.27;;
7821;SDS011;3956;50.558;9.678;2023-04-16T13:56:40;11.50;;;9.47;;
7821;SDS011;3956;50.558;9.678;2023-04-16T13:59:09;13.63;;;9.50;;
7821;SDS011;3956;50.558;9.678;2023-04-16T14:01:59;11.60;;;9.47;;
7821;SDS011;3956;50.558;9.678;2023-04-16T14:04:36;11.83;;;9.43;;
7821;SDS011;3956;50.558;9.678;2023-04-16T14:07:04;12.07;;;9.53;;
7821;SDS011;3956;50.558;9.678;2023-04-16T14:09:45;11.10;;;9.30;;
7821;SDS011;3956;50.558;9.678;2023-04-16T14:12:15;14.13;;;9.83;;
7821;SDS011;3956;50.558;9.678;2023-04-16T14:14:49;12.57;;;9.20;;
7821;SDS011;3956;50.558;9.678;2023-04-16T14:17:30;14.03;;;9.80;;
7821;SDS011;3956;50.558;9.678;2023-04-16T14:20:04;11.70;;;8.73;;
7821;SDS011;3956;50.558;9.678;2023-04-16T14:22:37;12.87;;;8.97;;
7821;SDS011;3956;50.558;9.678;2023-04-16T14:25:10;11.63;;;8.97;;
7821;SDS011;3956;50.558;9.678;2023-04-16T14:27:48;12.37;;;8.50;;
7821;SDS011;3956;50.558;9.678;2023-04-16T14:30:24;11.87;;;9.33;;
7821;SDS011;3956;50.558;9.678;2023-04-16T14:32:58;12.57;;;9.60;;
7821;SDS011;3956;50.558;9.678;2023-04-16T14:35:28;11.70;;;9.70;;
7821;SDS011;3956;50.558;9.678;2023-04-16T14:38:05;12.03;;;9.30;;
7821;SDS011;3956;50.558;9.678;2023-04-16T14:40:42;13.53;;;9.63;;
7821;SDS011;3956;50.558;9.678;2023-04-16T14:43:11;11.17;;;8.87;;
7821;SDS011;3956;50.558;9.678;2023-04-16T14:45:40;13.17;;;10.33;;
7821;SDS011;3956;50.558;9.678;2023-04-16T14:48:10;13.77;;;10.07;;
7821;SDS011;3956;50.558;9.678;2023-04-16T14:50:38;17.33;;;9.63;;
7821;SDS011;3956;50.558;9.678;2023-04-16T14:53:09;13.70;;;10.10;;
7821;SDS011;3956;50.558;9.678;2023-04-16T14:55:38;12.57;;;10.13;;
7821;SDS011;3956;50.558;9.678;2023-04-16T14:58:07;15.97;;;10.23;;
7821;SDS011;3956;50.558;9.678;2023-04-16T15:00:36;13.20;;;10.37;;
7821;SDS011;3956;50.558;9.678;2023-04-16T15:03:07;13.00;;;9.93;;
7821;SDS011;3956;50.558;9.678;2023-04-16T15:05:37;14.53;;;10.50;;
7821;SDS011;3956;50.558;9.678;2023-04-16T15:08:05;16.70;;;10.97;;
7821;SDS011;3956;50.558;9.678;2023-04-16T15:10:34;12.27;;;10.10;;
7821;SDS011;3956;50.558;9.678;2023-04-16T15:13:04;13.77;;;10.63;;
7821;SDS011;3956;50.558;9.678;2023-04-16T15:15:33;14.50;;;10.67;;
7821;SDS011;3956;50.558;9.678;2023-04-16T15:18:01;14.20;;;11.03;;
7821;SDS011;3956;50.558;9.678;2023-04-16T15:20:30;16.58;;;11.88;;
7821;SDS011;3956;50.558;9.678;2023-04-16T15:23:00;15.97;;;10.80;;
7821;SDS011;3956;50.558;9.678;2023-04-16T15:25:28;14.83;;;10.70;;
7821;SDS011;3956;50.558;9.678;2023-04-16T15:27:56;13.30;;;10.20;;